sensor_id;sensor_type;location;lat;lon;timestamp;temperature;humidity
49052;DHT22;34866;48.670;18.260;2022-11-18T00:00:49;153.90;2252.80
49052;DHT22;34866;48.670;18.260;2022-11-18T00:03:20;153.90;1996.80
49052;DHT22;34866;48.670;18.260;2022-11-18T00:05:54;153.90;2124.80
49052;DHT22;34866;48.670;18.260;2022-11-18T00:08:21;153.90;2099.20
49052;DHT22;34866;48.670;18.260;2022-11-18T00:10:47;153.90;2252.80
49052;DHT22;34866;48.670;18.260;2022-11-18T00:13:13;153.90;2252.80
49052;DHT22;34866;48.670;18.260;2022-11-18T00:16:06;153.90;2252.80
49052;DHT22;34866;48.670;18.260;2022-11-18T00:18:32;153.90;2252.80
49052;DHT22;34866;48.670;18.260;2022-11-18T00:21:08;153.80;2252.80
49052;DHT22;34866;48.670;18.260;2022-11-18T00:23:34;153.80;2252.80
49052;DHT22;34866;48.670;18.260;2022-11-18T00:26:11;153.80;2252.80
49052;DHT22;34866;48.670;18.260;2022-11-18T00:28:37;153.90;2252.80
49052;DHT22;34866;48.670;18.260;2022-11-18T00:31:11;153.90;2252.80
49052;DHT22;34866;48.670;18.260;2022-11-18T00:33:38;153.90;2252.80
49052;DHT22;34866;48.670;18.260;2022-11-18T00:36:09;153.90;2252.80
49052;DHT22;34866;48.670;18.260;2022-11-18T00:38:39;153.90;2252.80
49052;DHT22;34866;48.670;18.260;2022-11-18T00:41:10;153.90;2252.80
49052;DHT22;34866;48.670;18.260;2022-11-18T00:43:36;153.90;2252.80
49052;DHT22;34866;48.670;18.260;2022-11-18T00:46:02;153.80;2252.80
49052;DHT22;34866;48.670;18.260;2022-11-18T00:48:28;153.90;2252.80
49052;DHT22;34866;48.670;18.260;2022-11-18T00:50:56;153.90;2252.80
49052;DHT22;34866;48.670;18.260;2022-11-18T00:53:25;153.80;2252.80
49052;DHT22;34866;48.670;18.260;2022-11-18T00:55:51;153.90;2252.80
49052;DHT22;34866;48.670;18.260;2022-11-18T00:58:20;153.90;2252.80
49052;DHT22;34866;48.670;18.260;2022-11-18T01:00:50;153.90;2252.80
49052;DHT22;34866;48.670;18.260;2022-11-18T01:03:16;153.80;2252.80
49052;DHT22;34866;48.670;18.260;2022-11-18T01:05:42;153.80;2252.80
49052;DHT22;34866;48.670;18.260;2022-11-18T01:08:09;153.80;2252.80
49052;DHT22;34866;48.670;18.260;2022-11-18T01:10:36;153.70;2252.80
49052;DHT22;34866;48.670;18.260;2022-11-18T01:13:03;153.80;2252.80
49052;DHT22;34866;48.670;18.260;2022-11-18T01:15:55;153.70;2252.80
49052;DHT22;34866;48.670;18.260;2022-11-18T01:18:26;153.70;2252.80
49052;DHT22;34866;48.670;18.260;2022-11-18T01:20:52;153.70;2252.80
49052;DHT22;34866;48.670;18.260;2022-11-18T01:23:19;153.70;2201.60
49052;DHT22;34866;48.670;18.260;2022-11-18T01:25:47;153.70;2252.80
49052;DHT22;34866;48.670;18.260;2022-11-18T01:28:14;153.70;2252.80
49052;DHT22;34866;48.670;18.260;2022-11-18T01:30:40;153.70;2252.80
49052;DHT22;34866;48.670;18.260;2022-11-18T01:33:07;153.70;2252.80
49052;DHT22;34866;48.670;18.260;2022-11-18T01:35:42;153.70;2252.80
49052;DHT22;34866;48.670;18.260;2022-11-18T01:38:13;153.70;2252.80
49052;DHT22;34866;48.670;18.260;2022-11-18T01:40:41;153.70;2252.80
49052;DHT22;34866;48.670;18.260;2022-11-18T01:43:17;153.70;2252.80
49052;DHT22;34866;48.670;18.260;2022-11-18T01:45:46;153.80;2227.20
49052;DHT22;34866;48.670;18.260;2022-11-18T01:48:30;153.70;2124.80
49052;DHT22;34866;48.670;18.260;2022-11-18T01:51:07;153.70;1971.20
49052;DHT22;34866;48.670;18.260;2022-11-18T01:53:40;153.70;1945.60
49052;DHT22;34866;48.670;18.260;2022-11-18T01:56:12;153.70;2201.60
49052;DHT22;34866;48.670;18.260;2022-11-18T01:58:43;153.70;2252.80
49052;DHT22;34866;48.670;18.260;2022-11-18T02:01:11;153.70;2252.80
49052;DHT22;34866;48.670;18.260;2022-11-18T02:03:37;153.70;2227.20
49052;DHT22;34866;48.670;18.260;2022-11-18T02:06:04;153.70;2252.80
49052;DHT22;34866;48.670;18.260;2022-11-18T02:08:31;153.70;2252.80
49052;DHT22;34866;48.670;18.260;2022-11-18T02:11:02;153.70;2252.80
49052;DHT22;34866;48.670;18.260;2022-11-18T02:13:29;153.70;2252.80
49052;DHT22;34866;48.670;18.260;2022-11-18T02:16:14;153.80;2252.80
49052;DHT22;34866;48.670;18.260;2022-11-18T02:18:53;153.80;2252.80
49052;DHT22;34866;48.670;18.260;2022-11-18T02:26:53;153.70;2252.80
49052;DHT22;34866;48.670;18.260;2022-11-18T02:29:26;153.70;1894.40
49052;DHT22;34866;48.670;18.260;2022-11-18T02:32:02;153.70;1996.80
49052;DHT22;34866;48.670;18.260;2022-11-18T02:34:47;153.70;2252.80
49052;DHT22;34866;48.670;18.260;2022-11-18T02:40:01;153.80;2252.80
49052;DHT22;34866;48.670;18.260;2022-11-18T02:42:30;153.70;2252.80
49052;DHT22;34866;48.670;18.260;2022-11-18T02:45:02;153.70;2252.80
49052;DHT22;34866;48.670;18.260;2022-11-18T02:47:31;153.80;2252.80
49052;DHT22;34866;48.670;18.260;2022-11-18T02:50:02;153.80;2252.80
49052;DHT22;34866;48.670;18.260;2022-11-18T02:52:30;153.80;2252.80
49052;DHT22;34866;48.670;18.260;2022-11-18T02:54:57;153.80;2252.80
49052;DHT22;34866;48.670;18.260;2022-11-18T02:57:25;153.80;2252.80
49052;DHT22;34866;48.670;18.260;2022-11-18T02:59:53;153.80;2252.80
49052;DHT22;34866;48.670;18.260;2022-11-18T03:02:19;153.80;2252.80
49052;DHT22;34866;48.670;18.260;2022-11-18T03:04:46;153.80;2252.80
49052;DHT22;34866;48.670;18.260;2022-11-18T03:07:32;153.80;2252.80
49052;DHT22;34866;48.670;18.260;2022-11-18T03:10:00;153.80;2252.80
49052;DHT22;34866;48.670;18.260;2022-11-18T03:15:29;153.90;2252.80
49052;DHT22;34866;48.670;18.260;2022-11-18T03:21:07;153.90;2252.80
49052;DHT22;34866;48.670;18.260;2022-11-18T03:24:12;153.90;2252.80
49052;DHT22;34866;48.670;18.260;2022-11-18T03:26:37;153.90;2252.80
49052;DHT22;34866;48.670;18.260;2022-11-18T03:29:08;153.90;2252.80
49052;DHT22;34866;48.670;18.260;2022-11-18T03:31:41;153.90;2252.80
49052;DHT22;34866;48.670;18.260;2022-11-18T03:36:48;153.90;2252.80
49052;DHT22;34866;48.670;18.260;2022-11-18T03:39:16;153.90;2252.80
49052;DHT22;34866;48.670;18.260;2022-11-18T03:42:01;153.90;2252.80
49052;DHT22;34866;48.670;18.260;2022-11-18T03:44:32;153.90;2252.80
49052;DHT22;34866;48.670;18.260;2022-11-18T03:47:09;153.90;2252.80
49052;DHT22;34866;48.670;18.260;2022-11-18T03:49:44;153.80;2252.80
49052;DHT22;34866;48.670;18.260;2022-11-18T03:52:14;153.80;2252.80
49052;DHT22;34866;48.670;18.260;2022-11-18T03:54:44;153.80;2252.80
49052;DHT22;34866;48.670;18.260;2022-11-18T03:57:16;153.80;2252.80
49052;DHT22;34866;48.670;18.260;2022-11-18T04:00:10;153.80;2252.80
49052;DHT22;34866;48.670;18.260;2022-11-18T04:02:36;153.80;2252.80
49052;DHT22;34866;48.670;18.260;2022-11-18T04:05:06;153.70;2252.80
49052;DHT22;34866;48.670;18.260;2022-11-18T04:07:47;153.80;2252.80
49052;DHT22;34866;48.670;18.260;2022-11-18T04:10:21;153.80;2252.80
49052;DHT22;34866;48.670;18.260;2022-11-18T04:13:06;153.90;2252.80
49052;DHT22;34866;48.670;18.260;2022-11-18T04:15:36;153.90;2252.80
49052;DHT22;34866;48.670;18.260;2022-11-18T04:18:03;153.80;2252.80
49052;DHT22;34866;48.670;18.260;2022-11-18T04:20:28;153.80;2252.80
49052;DHT22;34866;48.670;18.260;2022-11-18T04:22:56;153.90;2252.80
49052;DHT22;34866;48.670;18.260;2022-11-18T04:25:21;153.90;2252.80
49052;DHT22;34866;48.670;18.260;2022-11-18T04:27:49;153.90;2252.80
49052;DHT22;34866;48.670;18.260;2022-11-18T04:30:15;153.90;1894.40
49052;DHT22;34866;48.670;18.260;2022-11-18T04:32:41;153.80;1894.40
49052;DHT22;34866;48.670;18.260;2022-11-18T04:35:07;153.80;1945.60
49052;DHT22;34866;48.670;18.260;2022-11-18T04:37:33;153.80;2073.60
49052;DHT22;34866;48.670;18.260;2022-11-18T04:39:59;153.80;2048.00
49052;DHT22;34866;48.670;18.260;2022-11-18T04:42:25;153.90;2022.40
49052;DHT22;34866;48.670;18.260;2022-11-18T04:44:51;153.90;2252.80
49052;DHT22;34866;48.670;18.260;2022-11-18T04:47:17;153.90;2252.80
49052;DHT22;34866;48.670;18.260;2022-11-18T04:49:43;153.90;2252.80
49052;DHT22;34866;48.670;18.260;2022-11-18T04:52:10;153.90;2252.80
49052;DHT22;34866;48.670;18.260;2022-11-18T04:54:35;153.90;2252.80
49052;DHT22;34866;48.670;18.260;2022-11-18T04:57:01;153.90;2252.80
49052;DHT22;34866;48.670;18.260;2022-11-18T04:59:28;153.90;2252.80
49052;DHT22;34866;48.670;18.260;2022-11-18T05:01:54;153.60;2252.80
49052;DHT22;34866;48.670;18.260;2022-11-18T05:04:23;153.90;2252.80
49052;DHT22;34866;48.670;18.260;2022-11-18T05:06:51;153.90;2252.80
49052;DHT22;34866;48.670;18.260;2022-11-18T05:09:17;153.80;2252.80
49052;DHT22;34866;48.670;18.260;2022-11-18T05:11:44;153.90;2252.80
49052;DHT22;34866;48.670;18.260;2022-11-18T05:14:29;153.90;2252.80
49052;DHT22;34866;48.670;18.260;2022-11-18T05:16:57;153.90;2252.80
49052;DHT22;34866;48.670;18.260;2022-11-18T05:19:23;154.30;2252.80
49052;DHT22;34866;48.670;18.260;2022-11-18T05:21:49;153.90;2252.80
49052;DHT22;34866;48.670;18.260;2022-11-18T05:24:15;153.90;2252.80
49052;DHT22;34866;48.670;18.260;2022-11-18T05:26:41;153.90;2252.80
49052;DHT22;34866;48.670;18.260;2022-11-18T05:29:07;153.90;2252.80
49052;DHT22;34866;48.670;18.260;2022-11-18T05:31:32;153.80;2252.80
49052;DHT22;34866;48.670;18.260;2022-11-18T05:33:58;153.80;2252.80
49052;DHT22;34866;48.670;18.260;2022-11-18T05:36:24;153.80;2252.80
49052;DHT22;34866;48.670;18.260;2022-11-18T05:38:53;153.80;2252.80
49052;DHT22;34866;48.670;18.260;2022-11-18T05:41:19;153.80;1868.80
49052;DHT22;34866;48.670;18.260;2022-11-18T05:44:11;153.80;1971.20
49052;DHT22;34866;48.670;18.260;2022-11-18T05:46:37;153.80;1920.00
49052;DHT22;34866;48.670;18.260;2022-11-18T05:49:02;153.80;1996.80
49052;DHT22;34866;48.670;18.260;2022-11-18T05:51:28;153.80;1920.00
49052;DHT22;34866;48.670;18.260;2022-11-18T05:53:54;153.80;1868.80
49052;DHT22;34866;48.670;18.260;2022-11-18T05:56:27;153.80;2252.80
49052;DHT22;34866;48.670;18.260;2022-11-18T05:58:53;153.80;2252.80
49052;DHT22;34866;48.670;18.260;2022-11-18T06:01:30;153.80;2252.80
49052;DHT22;34866;48.670;18.260;2022-11-18T06:03:59;153.70;2252.80
49052;DHT22;34866;48.670;18.260;2022-11-18T06:06:26;153.70;2252.80
49052;DHT22;34866;48.670;18.260;2022-11-18T06:09:03;153.70;2252.80
49052;DHT22;34866;48.670;18.260;2022-11-18T06:11:32;153.70;1945.60
49052;DHT22;34866;48.670;18.260;2022-11-18T06:14:14;153.60;2150.40
49052;DHT22;34866;48.670;18.260;2022-11-18T06:16:45;153.60;2048.00
49052;DHT22;34866;48.670;18.260;2022-11-18T06:19:13;153.60;2022.40
49052;DHT22;34866;48.670;18.260;2022-11-18T06:21:39;153.60;2201.60
49052;DHT22;34866;48.670;18.260;2022-11-18T06:24:06;153.60;2252.80
49052;DHT22;34866;48.670;18.260;2022-11-18T06:26:37;153.60;2252.80
49052;DHT22;34866;48.670;18.260;2022-11-18T06:29:04;153.60;2252.80
49052;DHT22;34866;48.670;18.260;2022-11-18T06:31:34;153.60;2252.80
49052;DHT22;34866;48.670;18.260;2022-11-18T06:34:00;153.60;2252.80
49052;DHT22;34866;48.670;18.260;2022-11-18T06:36:26;153.60;2252.80
49052;DHT22;34866;48.670;18.260;2022-11-18T06:38:51;153.60;2252.80
49052;DHT22;34866;48.670;18.260;2022-11-18T06:41:17;153.60;2252.80
49052;DHT22;34866;48.670;18.260;2022-11-18T06:43:44;153.60;2252.80
49052;DHT22;34866;48.670;18.260;2022-11-18T06:46:14;153.70;2252.80
49052;DHT22;34866;48.670;18.260;2022-11-18T06:49:00;153.70;2252.80
49052;DHT22;34866;48.670;18.260;2022-11-18T06:51:26;153.60;2252.80
49052;DHT22;34866;48.670;18.260;2022-11-18T06:53:51;153.70;2252.80
49052;DHT22;34866;48.670;18.260;2022-11-18T06:56:19;153.70;2252.80
49052;DHT22;34866;48.670;18.260;2022-11-18T06:58:55;153.80;2252.80
49052;DHT22;34866;48.670;18.260;2022-11-18T07:01:24;153.80;2252.80
49052;DHT22;34866;48.670;18.260;2022-11-18T07:03:50;153.80;2252.80
49052;DHT22;34866;48.670;18.260;2022-11-18T07:06:19;153.80;2252.80
49052;DHT22;34866;48.670;18.260;2022-11-18T07:08:46;153.90;2252.80
49052;DHT22;34866;48.670;18.260;2022-11-18T07:11:14;128.90;2252.80
49052;DHT22;34866;48.670;18.260;2022-11-18T07:13:40;153.90;2252.80
49052;DHT22;34866;48.670;18.260;2022-11-18T07:16:09;154.00;2252.80
49052;DHT22;34866;48.670;18.260;2022-11-18T07:18:37;154.10;2252.80
49052;DHT22;34866;48.670;18.260;2022-11-18T07:21:05;154.10;2252.80
49052;DHT22;34866;48.670;18.260;2022-11-18T07:23:32;154.10;2252.80
49052;DHT22;34866;48.670;18.260;2022-11-18T07:25:59;154.10;2252.80
49052;DHT22;34866;48.670;18.260;2022-11-18T07:28:26;153.70;2252.80
49052;DHT22;34866;48.670;18.260;2022-11-18T07:30:52;154.20;2252.80
49052;DHT22;34866;48.670;18.260;2022-11-18T07:33:17;154.20;2022.40
49052;DHT22;34866;48.670;18.260;2022-11-18T07:35:45;154.20;2252.80
49052;DHT22;34866;48.670;18.260;2022-11-18T07:38:10;154.20;2252.80
49052;DHT22;34866;48.670;18.260;2022-11-18T07:40:36;154.30;2252.80
49052;DHT22;34866;48.670;18.260;2022-11-18T07:43:07;154.20;2252.80
49052;DHT22;34866;48.670;18.260;2022-11-18T07:45:34;154.20;2252.80
49052;DHT22;34866;48.670;18.260;2022-11-18T07:48:00;154.20;2252.80
49052;DHT22;34866;48.670;18.260;2022-11-18T07:50:25;154.20;1945.60
49052;DHT22;34866;48.670;18.260;2022-11-18T07:52:55;154.20;2252.80
49052;DHT22;34866;48.670;18.260;2022-11-18T07:55:21;154.20;2252.80
49052;DHT22;34866;48.670;18.260;2022-11-18T07:57:47;154.20;2252.80
49052;DHT22;34866;48.670;18.260;2022-11-18T08:00:13;154.20;2252.80
49052;DHT22;34866;48.670;18.260;2022-11-18T08:02:39;154.20;2252.80
49052;DHT22;34866;48.670;18.260;2022-11-18T08:05:05;154.20;2252.80
49052;DHT22;34866;48.670;18.260;2022-11-18T08:07:31;154.30;2252.80
49052;DHT22;34866;48.670;18.260;2022-11-18T08:09:56;154.30;2201.60
49052;DHT22;34866;48.670;18.260;2022-11-18T08:12:22;154.20;1945.60
49052;DHT22;34866;48.670;18.260;2022-11-18T08:14:48;154.30;2252.80
49052;DHT22;34866;48.670;18.260;2022-11-18T08:17:13;154.30;2252.80
49052;DHT22;34866;48.670;18.260;2022-11-18T08:19:39;154.30;2252.80
49052;DHT22;34866;48.670;18.260;2022-11-18T08:22:04;154.30;2252.80
49052;DHT22;34866;48.670;18.260;2022-11-18T08:24:30;154.40;2252.80
49052;DHT22;34866;48.670;18.260;2022-11-18T08:26:56;154.40;2252.80
49052;DHT22;34866;48.670;18.260;2022-11-18T08:29:21;154.40;2252.80
49052;DHT22;34866;48.670;18.260;2022-11-18T08:31:50;154.40;1971.20
49052;DHT22;34866;48.670;18.260;2022-11-18T08:34:16;154.40;1971.20
49052;DHT22;34866;48.670;18.260;2022-11-18T08:36:42;154.50;2252.80
49052;DHT22;34866;48.670;18.260;2022-11-18T08:39:10;154.50;1971.20
49052;DHT22;34866;48.670;18.260;2022-11-18T08:41:36;179.20;2252.80
49052;DHT22;34866;48.670;18.260;2022-11-18T08:44:04;154.50;2252.80
49052;DHT22;34866;48.670;18.260;2022-11-18T08:46:30;154.50;2252.80
49052;DHT22;34866;48.670;18.260;2022-11-18T08:48:56;179.20;2252.80
49052;DHT22;34866;48.670;18.260;2022-11-18T08:51:23;179.40;2252.80
49052;DHT22;34866;48.670;18.260;2022-11-18T08:53:49;179.20;2252.80
49052;DHT22;34866;48.670;18.260;2022-11-18T08:56:17;179.30;2252.80
49052;DHT22;34866;48.670;18.260;2022-11-18T08:58:44;179.30;2252.80
49052;DHT22;34866;48.670;18.260;2022-11-18T09:01:10;179.50;2252.80
49052;DHT22;34866;48.670;18.260;2022-11-18T09:03:37;205.00;2252.80
49052;DHT22;34866;48.670;18.260;2022-11-18T09:06:14;179.50;2252.80
49052;DHT22;34866;48.670;18.260;2022-11-18T09:08:40;179.50;2252.80
49052;DHT22;34866;48.670;18.260;2022-11-18T09:11:17;179.50;2252.80
49052;DHT22;34866;48.670;18.260;2022-11-18T09:13:43;179.50;2252.80
49052;DHT22;34866;48.670;18.260;2022-11-18T09:16:14;179.60;2252.80
49052;DHT22;34866;48.670;18.260;2022-11-18T09:18:40;179.60;2252.80
49052;DHT22;34866;48.670;18.260;2022-11-18T09:21:08;179.80;2252.80
49052;DHT22;34866;48.670;18.260;2022-11-18T09:23:35;179.60;2252.80
49052;DHT22;34866;48.670;18.260;2022-11-18T09:26:07;179.80;2252.80
49052;DHT22;34866;48.670;18.260;2022-11-18T09:28:34;179.70;2252.80
49052;DHT22;34866;48.670;18.260;2022-11-18T09:31:04;179.80;2252.80
49052;DHT22;34866;48.670;18.260;2022-11-18T09:33:30;179.80;2252.80
49052;DHT22;34866;48.670;18.260;2022-11-18T09:35:56;179.90;2252.80
49052;DHT22;34866;48.670;18.260;2022-11-18T09:38:23;180.00;2252.80
49052;DHT22;34866;48.670;18.260;2022-11-18T09:40:58;179.90;2252.80
49052;DHT22;34866;48.670;18.260;2022-11-18T09:48:44;179.90;1894.40
49052;DHT22;34866;48.670;18.260;2022-11-18T09:51:46;180.00;1920.00
49052;DHT22;34866;48.670;18.260;2022-11-18T09:54:30;180.00;2252.80
49052;DHT22;34866;48.670;18.260;2022-11-18T09:57:20;204.80;2252.80
49052;DHT22;34866;48.670;18.260;2022-11-18T09:59:53;205.00;2252.80
49052;DHT22;34866;48.670;18.260;2022-11-18T10:02:58;204.90;2252.80
49052;DHT22;34866;48.670;18.260;2022-11-18T10:05:39;204.80;2252.80
49052;DHT22;34866;48.670;18.260;2022-11-18T10:19:46;204.80;2252.80
49052;DHT22;34866;48.670;18.260;2022-11-18T10:22:21;204.90;2252.80
49052;DHT22;34866;48.670;18.260;2022-11-18T10:24:55;180.10;2252.80
49052;DHT22;34866;48.670;18.260;2022-11-18T10:27:33;180.10;2252.80
49052;DHT22;34866;48.670;18.260;2022-11-18T10:30:00;180.10;2252.80
49052;DHT22;34866;48.670;18.260;2022-11-18T10:32:26;204.80;2252.80
49052;DHT22;34866;48.670;18.260;2022-11-18T10:34:57;204.80;2252.80
49052;DHT22;34866;48.670;18.260;2022-11-18T10:37:29;180.10;2252.80
49052;DHT22;34866;48.670;18.260;2022-11-18T10:39:58;180.10;2252.80
49052;DHT22;34866;48.670;18.260;2022-11-18T10:42:41;180.10;2252.80
49052;DHT22;34866;48.670;18.260;2022-11-18T10:45:28;180.00;2252.80
49052;DHT22;34866;48.670;18.260;2022-11-18T10:48:17;180.10;2252.80
49052;DHT22;34866;48.670;18.260;2022-11-18T10:50:51;180.00;2252.80
49052;DHT22;34866;48.670;18.260;2022-11-18T10:53:34;179.90;2252.80
49052;DHT22;34866;48.670;18.260;2022-11-18T10:58:31;179.90;2252.80
49052;DHT22;34866;48.670;18.260;2022-11-18T11:01:20;179.90;2252.80
49052;DHT22;34866;48.670;18.260;2022-11-18T11:03:58;205.10;2252.80
49052;DHT22;34866;48.670;18.260;2022-11-18T11:06:30;179.90;2252.80
49052;DHT22;34866;48.670;18.260;2022-11-18T11:09:28;179.80;2252.80
49052;DHT22;34866;48.670;18.260;2022-11-18T11:14:25;179.80;2252.80
49052;DHT22;34866;48.670;18.260;2022-11-18T11:16:58;179.80;2252.80
49052;DHT22;34866;48.670;18.260;2022-11-18T11:19:51;179.70;2252.80
49052;DHT22;34866;48.670;18.260;2022-11-18T11:22:21;179.60;2252.80
49052;DHT22;34866;48.670;18.260;2022-11-18T11:24:48;179.60;2252.80
49052;DHT22;34866;48.670;18.260;2022-11-18T11:27:22;179.50;2252.80
49052;DHT22;34866;48.670;18.260;2022-11-18T11:35:22;179.40;2252.80
49052;DHT22;34866;48.670;18.260;2022-11-18T11:37:50;179.50;2252.80
49052;DHT22;34866;48.670;18.260;2022-11-18T11:40:33;179.30;1920.00
49052;DHT22;34866;48.670;18.260;2022-11-18T11:43:06;179.30;2252.80
49052;DHT22;34866;48.670;18.260;2022-11-18T11:45:58;179.20;2252.80
49052;DHT22;34866;48.670;18.260;2022-11-18T11:51:55;154.40;2252.80
49052;DHT22;34866;48.670;18.260;2022-11-18T11:54:50;154.50;2252.80
49052;DHT22;34866;48.670;18.260;2022-11-18T12:02:34;154.40;2252.80
49052;DHT22;34866;48.670;18.260;2022-11-18T12:07:48;154.40;2252.80
49052;DHT22;34866;48.670;18.260;2022-11-18T12:13:13;154.50;2252.80
49052;DHT22;34866;48.670;18.260;2022-11-18T12:15:59;154.40;2252.80
49052;DHT22;34866;48.670;18.260;2022-11-18T12:18:32;154.40;2252.80
49052;DHT22;34866;48.670;18.260;2022-11-18T12:20:59;154.40;2252.80
49052;DHT22;34866;48.670;18.260;2022-11-18T12:23:27;154.40;2252.80
49052;DHT22;34866;48.670;18.260;2022-11-18T12:26:08;154.40;2252.80
49052;DHT22;34866;48.670;18.260;2022-11-18T12:28:42;154.40;2252.80
49052;DHT22;34866;48.670;18.260;2022-11-18T12:31:30;154.30;2252.80
49052;DHT22;34866;48.670;18.260;2022-11-18T12:34:02;154.30;2252.80
49052;DHT22;34866;48.670;18.260;2022-11-18T12:36:34;154.20;2252.80
49052;DHT22;34866;48.670;18.260;2022-11-18T12:42:03;154.20;2252.80
49052;DHT22;34866;48.670;18.260;2022-11-18T12:44:50;154.30;2252.80
49052;DHT22;34866;48.670;18.260;2022-11-18T12:50:11;154.50;2252.80
49052;DHT22;34866;48.670;18.260;2022-11-18T12:55:25;154.50;2252.80
49052;DHT22;34866;48.670;18.260;2022-11-18T12:57:56;154.40;2252.80
49052;DHT22;34866;48.670;18.260;2022-11-18T13:00:36;154.30;2252.80
49052;DHT22;34866;48.670;18.260;2022-11-18T13:03:24;154.40;2252.80
49052;DHT22;34866;48.670;18.260;2022-11-18T13:05:58;154.30;2252.80
49052;DHT22;34866;48.670;18.260;2022-11-18T13:08:27;154.40;2252.80
49052;DHT22;34866;48.670;18.260;2022-11-18T13:10:56;154.40;2252.80
49052;DHT22;34866;48.670;18.260;2022-11-18T13:13:50;154.30;2252.80
49052;DHT22;34866;48.670;18.260;2022-11-18T13:16:42;154.40;2252.80
49052;DHT22;34866;48.670;18.260;2022-11-18T13:19:28;154.40;2252.80
49052;DHT22;34866;48.670;18.260;2022-11-18T13:21:55;154.30;2252.80
49052;DHT22;34866;48.670;18.260;2022-11-18T13:24:48;154.30;2252.80
49052;DHT22;34866;48.670;18.260;2022-11-18T13:27:37;154.10;2252.80
49052;DHT22;34866;48.670;18.260;2022-11-18T13:30:12;154.10;2252.80
49052;DHT22;34866;48.670;18.260;2022-11-18T13:32:45;154.20;2252.80
49052;DHT22;34866;48.670;18.260;2022-11-18T13:35:13;154.20;2252.80
49052;DHT22;34866;48.670;18.260;2022-11-18T13:37:54;154.00;2252.80
49052;DHT22;34866;48.670;18.260;2022-11-18T13:40:43;153.90;2252.80
49052;DHT22;34866;48.670;18.260;2022-11-18T13:43:31;153.90;2252.80
49052;DHT22;34866;48.670;18.260;2022-11-18T13:45:59;153.90;2252.80
49052;DHT22;34866;48.670;18.260;2022-11-18T13:48:26;153.80;2252.80
49052;DHT22;34866;48.670;18.260;2022-11-18T13:50:53;153.90;2252.80
49052;DHT22;34866;48.670;18.260;2022-11-18T13:53:49;153.80;2252.80
49052;DHT22;34866;48.670;18.260;2022-11-18T13:56:25;153.80;2252.80
49052;DHT22;34866;48.670;18.260;2022-11-18T13:58:57;153.70;2252.80
49052;DHT22;34866;48.670;18.260;2022-11-18T14:01:33;153.70;2150.40
49052;DHT22;34866;48.670;18.260;2022-11-18T14:04:02;153.60;2252.80
49052;DHT22;34866;48.670;18.260;2022-11-18T14:09:31;153.70;2252.80
49052;DHT22;34866;48.670;18.260;2022-11-18T14:12:05;153.60;2252.80
49052;DHT22;34866;48.670;18.260;2022-11-18T14:17:21;128.90;2252.80
49052;DHT22;34866;48.670;18.260;2022-11-18T14:19:57;153.60;2252.80
49052;DHT22;34866;48.670;18.260;2022-11-18T14:22:28;128.80;1894.40
49052;DHT22;34866;48.670;18.260;2022-11-18T14:35:32;128.70;2252.80
49052;DHT22;34866;48.670;18.260;2022-11-18T14:37:59;128.70;2252.80
49052;DHT22;34866;48.670;18.260;2022-11-18T14:40:27;128.60;2252.80
49052;DHT22;34866;48.670;18.260;2022-11-18T14:42:53;128.30;2252.80
49052;DHT22;34866;48.670;18.260;2022-11-18T14:45:19;128.40;2252.80
49052;DHT22;34866;48.670;18.260;2022-11-18T14:47:44;128.40;2252.80
49052;DHT22;34866;48.670;18.260;2022-11-18T14:50:16;128.20;2252.80
49052;DHT22;34866;48.670;18.260;2022-11-18T14:52:42;128.20;2150.40
49052;DHT22;34866;48.670;18.260;2022-11-18T14:55:10;128.30;2176.00
49052;DHT22;34866;48.670;18.260;2022-11-18T14:57:35;128.20;2252.80
49052;DHT22;34866;48.670;18.260;2022-11-18T15:00:13;128.20;2252.80
49052;DHT22;34866;48.670;18.260;2022-11-18T15:02:38;128.10;2252.80
49052;DHT22;34866;48.670;18.260;2022-11-18T15:05:04;103.30;1945.60
49052;DHT22;34866;48.670;18.260;2022-11-18T15:07:31;103.30;1971.20
49052;DHT22;34866;48.670;18.260;2022-11-18T15:09:57;103.30;1868.80
49052;DHT22;34866;48.670;18.260;2022-11-18T15:12:23;103.20;2227.20
49052;DHT22;34866;48.670;18.260;2022-11-18T15:14:48;103.10;1894.40
49052;DHT22;34866;48.670;18.260;2022-11-18T15:17:14;103.10;2227.20
49052;DHT22;34866;48.670;18.260;2022-11-18T15:19:40;103.10;2227.20
49052;DHT22;34866;48.670;18.260;2022-11-18T15:22:06;103.10;2227.20
49052;DHT22;34866;48.670;18.260;2022-11-18T15:24:33;103.10;2227.20
49052;DHT22;34866;48.670;18.260;2022-11-18T15:26:59;103.00;2227.20
49052;DHT22;34866;48.670;18.260;2022-11-18T15:29:29;102.90;2227.20
49052;DHT22;34866;48.670;18.260;2022-11-18T15:31:55;103.00;2227.20
49052;DHT22;34866;48.670;18.260;2022-11-18T15:34:24;102.70;2227.20
49052;DHT22;34866;48.670;18.260;2022-11-18T15:36:50;102.80;2227.20
49052;DHT22;34866;48.670;18.260;2022-11-18T15:39:16;102.70;2227.20
49052;DHT22;34866;48.670;18.260;2022-11-18T15:41:42;102.60;2227.20
49052;DHT22;34866;48.670;18.260;2022-11-18T15:44:09;102.70;2227.20
49052;DHT22;34866;48.670;18.260;2022-11-18T15:46:35;102.50;2227.20
49052;DHT22;34866;48.670;18.260;2022-11-18T15:49:04;102.50;2227.20
49052;DHT22;34866;48.670;18.260;2022-11-18T15:51:30;102.60;2227.20
49052;DHT22;34866;48.670;18.260;2022-11-18T15:53:57;102.40;2227.20
49052;DHT22;34866;48.670;18.260;2022-11-18T15:59:03;102.50;2227.20
49052;DHT22;34866;48.670;18.260;2022-11-18T16:01:35;77.70;2227.20
49052;DHT22;34866;48.670;18.260;2022-11-18T16:04:02;102.40;2227.20
49052;DHT22;34866;48.670;18.260;2022-11-18T16:06:28;102.40;2227.20
49052;DHT22;34866;48.670;18.260;2022-11-18T16:08:54;102.50;2227.20
49052;DHT22;34866;48.670;18.260;2022-11-18T16:11:20;102.50;2227.20
49052;DHT22;34866;48.670;18.260;2022-11-18T16:14:09;102.40;2227.20
49052;DHT22;34866;48.670;18.260;2022-11-18T16:16:36;77.70;2227.20
49052;DHT22;34866;48.670;18.260;2022-11-18T16:19:08;102.50;2227.20
49052;DHT22;34866;48.670;18.260;2022-11-18T16:21:36;102.40;2227.20
49052;DHT22;34866;48.670;18.260;2022-11-18T16:24:04;102.40;2227.20